Capitol View, South Carolina
Current Conditions -  °F | °C
As of 3:53 PM on Saturday 22 Nov 2014 (Local Time) from KCUB Reporting Station
Clear Clear  
Wind Chill: 62°   Ceiling: Unl
Heat Index: 62°   Visibility: 10mi
Dew Point: 21°   Wind: 3mph
Humidity: 21%   Direction: NA
Pressure: 30.37"   Gusts: NA
Location:  33.9488°N, 80.9462°W
Report Text: KCUB 222053Z AUTO VRB03KT 10SM CLR 17/M06 A3037 RMK AO2 SLP285 T01671061 56025
Loading
Personal Weather Stations






























Interactive Weather Map New forecast layout! Learn more

10-Day Weather Forecast

Advertisements
Track Severe Weather on mobile